Stations météo

Publicité
Kinbrace, Grande-Bretagne (99016): Température de l'air & dewpoint: 20.09.2017 12:00:00 - 26.09.2017 12:00:00 (BST)Kinbrace, Grande-Bretagne (99016): Vitesse du vent & gusts: 20.09.2017 12:00:00 - 26.09.2017 12:00:00 (BST)Kinbrace, Grande-Bretagne (99016): Direction du vent: 20.09.2017 12:00:00 - 26.09.2017 12:00:00 (BST)Kinbrace, Grande-Bretagne (99016): Quantités de précipitations: 20.09.2017 12:00:00 - 26.09.2017 12:00:00 (BST)
Date & Time tt [°C] td [°C] ff [km/h] ff [knt] fx [km/h] fx [knt] dd rr [mm]
26.09.2017 12:00:00 - - - - - - - -
26.09.2017 11:00:00 14,1 12,0 21 11 - - SE 0,0
26.09.2017 10:00:00 13,7 12,1 24 13 - - SE 0,0
26.09.2017 09:00:00 13,1 12,1 26 14 - - SE 0,0
26.09.2017 08:00:00 13,1 12,0 22 12 - - SE 0,0
26.09.2017 07:00:00 12,6 11,6 15 8 - - SE 0,0
26.09.2017 06:00:00 12,7 11,8 18 10 - - ESE 0,0
26.09.2017 05:00:00 12,5 11,8 18 10 - - ESE 0,0
26.09.2017 04:00:00 11,7 10,8 18 10 - - ESE -
26.09.2017 03:00:00 12,0 9,9 21 11 - - SE 0,0
26.09.2017 02:00:00 11,7 10,9 18 10 - - ESE 0,0
26.09.2017 01:00:00 12,3 11,5 21 11 - - ESE 0,0
26.09.2017 00:00:00 12,6 11,9 21 11 - - ESE 0,0
25.09.2017 23:00:00 13,2 12,3 16 9 - - SE 0,0
25.09.2017 22:00:00 12,9 12,0 21 11 - - SE 0,0
25.09.2017 21:00:00 13,0 12,1 21 11 - - ESE 0,0
25.09.2017 20:00:00 13,1 12,1 16 9 - - ESE 0,0
25.09.2017 19:00:00 13,4 12,0 16 9 - - SE 0,0
25.09.2017 18:00:00 14,9 12,4 18 10 - - SE 0,0
25.09.2017 17:00:00 14,7 12,2 21 11 - - SE 0,0
25.09.2017 16:00:00 16,2 13,0 21 11 - - SE 0,0
25.09.2017 15:00:00 15,7 12,4 21 11 - - SE 0,0
25.09.2017 14:00:00 14,2 12,4 26 14 - - SE 0,0
25.09.2017 13:00:00 13,8 12,6 18 10 - - SE 0,0
25.09.2017 12:00:00 13,7 12,2 24 13 - - SSE 0,2
25.09.2017 11:00:00 13,2 12,4 21 11 - - SE 0,0
25.09.2017 10:00:00 13,2 12,4 18 10 - - SE -
25.09.2017 09:00:00 13,0 12,2 22 12 - - SE 1,8
25.09.2017 08:00:00 13,0 12,2 24 13 - - SE 0,8
25.09.2017 07:00:00 13,1 12,1 21 11 - - SE 0,0
25.09.2017 06:00:00 12,8 11,9 22 12 - - SE 0,8
25.09.2017 05:00:00 13,0 12,3 15 8 - - SE 2,8
25.09.2017 04:00:00 12,8 12,3 9 5 - - SSE 1,6
25.09.2017 03:00:00 12,7 12,1 8 4 - - SE 0,8
25.09.2017 02:00:00 12,6 12,1 11 6 - - ESE 0,0
25.09.2017 01:00:00 12,0 11,6 5 3 - - E 0,0
25.09.2017 00:00:00 12,6 11,8 8 4 - - ESE 0,0
24.09.2017 23:00:00 12,9 12,0 8 4 - - SE 0,0
24.09.2017 22:00:00 12,7 12,2 8 4 - - SE 1,0
24.09.2017 21:00:00 12,8 11,9 11 6 - - SE 0,6
24.09.2017 20:00:00 12,7 11,6 13 7 - - SE 0,2
24.09.2017 19:00:00 13,1 12,1 15 8 - - ESE 0,8
24.09.2017 18:00:00 13,4 12,0 13 7 - - SE 0,4
24.09.2017 17:00:00 13,5 11,8 16 9 - - SE 0,2
24.09.2017 16:00:00 14,0 11,8 18 10 - - SE 0,0
24.09.2017 15:00:00 14,5 11,9 11 6 - - E 0,0
24.09.2017 14:00:00 14,8 12,1 16 9 - - SSE -
24.09.2017 13:00:00 13,8 11,7 13 7 - - SE 0,2
24.09.2017 12:00:00 13,6 11,5 21 11 - - SE 0,4
24.09.2017 11:00:00 14,3 10,7 18 10 - - SE 0,0
24.09.2017 10:00:00 14,7 10,5 22 12 - - SE 0,0
24.09.2017 09:00:00 14,7 10,0 22 12 - - SSE 0,0
24.09.2017 08:00:00 13,9 9,7 22 12 - - SSE 0,0
24.09.2017 07:00:00 14,2 10,3 24 13 - - SE 0,0
24.09.2017 06:00:00 13,9 11,6 28 15 - - SE 0,0
24.09.2017 05:00:00 14,1 11,9 29 16 - - SE 0,0
24.09.2017 04:00:00 14,3 11,3 28 15 - - SE 0,0
24.09.2017 03:00:00 14,1 10,9 21 11 54 29 SE 0,0
24.09.2017 02:00:00 14,3 10,8 29 16 - - SE 0,0
24.09.2017 01:00:00 14,9 9,8 29 16 48 26 SSE 0,0
24.09.2017 00:00:00 14,5 11,9 29 16 - - SE 0,0
23.09.2017 23:00:00 14,5 12,1 35 19 54 29 SE 0,0
23.09.2017 22:00:00 14,7 11,8 37 20 50 27 SE 0,0
23.09.2017 21:00:00 14,4 11,7 37 20 50 27 SE 0,0
23.09.2017 20:00:00 14,8 11,5 29 16 50 27 SE 0,0
23.09.2017 19:00:00 15,6 11,2 28 15 46 25 SE 0,0
23.09.2017 18:00:00 16,0 11,4 28 15 - - SE 0,0
23.09.2017 17:00:00 16,9 11,6 24 13 - - SSE 0,0
23.09.2017 16:00:00 16,7 10,8 29 16 - - SSE 0,0
23.09.2017 15:00:00 17,8 10,7 28 15 - - SSE 0,0
23.09.2017 14:00:00 17,5 10,9 26 14 - - SSE 0,0
23.09.2017 13:00:00 17,1 10,9 22 12 - - SSE 0,0
23.09.2017 12:00:00 16,0 9,9 24 13 - - SSE 0,0
23.09.2017 11:00:00 14,9 10,2 24 13 - - SSE 0,0
23.09.2017 10:00:00 13,5 10,3 24 13 - - SSE 0,0
23.09.2017 09:00:00 12,0 9,9 28 15 - - SE 0,0
23.09.2017 08:00:00 10,9 8,5 21 11 - - SE 0,0
23.09.2017 07:00:00 10,8 8,7 22 12 - - SE 0,0
23.09.2017 06:00:00 10,3 9,3 18 10 - - ESE 0,0
23.09.2017 05:00:00 10,5 9,5 16 9 - - ESE 0,0
23.09.2017 04:00:00 10,1 9,1 16 9 - - ESE 0,0
23.09.2017 03:00:00 10,5 9,0 21 11 - - ESE 0,0
23.09.2017 02:00:00 10,3 8,8 15 8 - - SE 0,0
23.09.2017 01:00:00 10,0 8,2 18 10 - - ESE 0,0
23.09.2017 00:00:00 10,7 8,4 18 10 - - SE 0,0
22.09.2017 23:00:00 10,6 8,1 26 14 - - ESE 0,0
22.09.2017 22:00:00 11,1 8,0 21 11 - - SE 0,0
22.09.2017 21:00:00 11,6 8,0 16 9 - - SE 0,0
22.09.2017 20:00:00 12,3 9,1 21 11 - - ESE 0,0
22.09.2017 19:00:00 12,3 9,2 21 11 - - SE 0,0
22.09.2017 18:00:00 12,6 9,7 26 14 - - SE 0,0
22.09.2017 17:00:00 12,4 9,7 24 13 - - SE 0,0
22.09.2017 16:00:00 11,6 9,6 21 11 - - SE 0,0
22.09.2017 15:00:00 11,6 9,0 22 12 - - SE -
22.09.2017 14:00:00 - - - - - - - -
22.09.2017 13:00:00 - - - - - - - -
22.09.2017 12:00:00 - - - - - - - -
22.09.2017 11:00:00 - - - - - - - -
22.09.2017 10:00:00 10,0 7,5 18 10 - - ESE 0,0
22.09.2017 09:00:00 8,3 6,6 16 9 - - ESE 0,0
22.09.2017 08:00:00 5,3 5,1 9 5 - - ESE 0,0
22.09.2017 07:00:00 4,2 4,0 0 0 - - N 0,0
22.09.2017 06:00:00 3,5 3,3 0 0 - - N 0,0
22.09.2017 05:00:00 0,2 0,1 0 0 - - N 0,2
22.09.2017 04:00:00 0,9 0,8 0 0 - - N 0,0
22.09.2017 03:00:00 1,6 1,5 0 0 - - N 0,0
22.09.2017 02:00:00 2,2 2,2 0 0 - - N 0,0
22.09.2017 01:00:00 2,4 2,4 0 0 - - N 0,0
22.09.2017 00:00:00 3,1 2,9 0 0 - - N 0,0
21.09.2017 23:00:00 4,6 4,4 0 0 - - N 0,0
21.09.2017 22:00:00 5,4 5,0 0 0 - - N 0,0
21.09.2017 21:00:00 8,5 8,2 0 0 - - N 0,0
21.09.2017 20:00:00 9,4 8,4 0 0 - - N 0,0
21.09.2017 19:00:00 10,4 9,0 0 0 - - N 0,0
21.09.2017 18:00:00 10,9 9,1 2 1 - - NNW 0,0
21.09.2017 17:00:00 11,1 9,7 9 5 - - NW 0,2
21.09.2017 16:00:00 10,9 9,7 11 6 - - NW 0,4
21.09.2017 15:00:00 10,7 9,5 13 7 - - NW 0,4
21.09.2017 14:00:00 10,7 10,1 0 0 - - N 0,8
21.09.2017 13:00:00 10,5 9,9 9 5 - - NW 0,0
21.09.2017 12:00:00 10,7 9,9 9 5 - - NW 0,2
21.09.2017 11:00:00 9,9 9,4 9 5 - - NW 0,0
21.09.2017 10:00:00 9,3 9,1 0 0 - - N 1,2
21.09.2017 09:00:00 8,9 8,8 0 0 - - N 1,0
21.09.2017 08:00:00 8,5 8,4 0 0 - - N 0,0
21.09.2017 07:00:00 8,0 7,8 0 0 - - N 0,0
21.09.2017 06:00:00 8,5 8,3 0 0 - - N 0,0
21.09.2017 05:00:00 8,6 8,5 8 4 - - N 0,2
21.09.2017 04:00:00 8,8 8,6 9 5 - - NNW 0,4
21.09.2017 03:00:00 9,1 9,0 0 0 - - N 0,4
21.09.2017 02:00:00 9,0 8,8 0 0 - - N 0,2
21.09.2017 01:00:00 9,3 9,1 5 3 - - NW 0,6
21.09.2017 00:00:00 9,9 9,7 8 4 - - NNW 1,4
20.09.2017 23:00:00 10,0 9,7 11 6 - - N 1,2
20.09.2017 22:00:00 10,2 9,9 9 5 - - N 0,6
20.09.2017 21:00:00 10,3 9,9 13 7 - - N 1,4
20.09.2017 20:00:00 10,5 10,1 15 8 - - N 1,4
20.09.2017 19:00:00 11,0 10,5 11 6 - - N 0,2
20.09.2017 18:00:00 11,3 10,8 15 8 - - NNE 0,6
20.09.2017 17:00:00 12,0 11,3 11 6 - - N 0,2
20.09.2017 16:00:00 13,0 12,1 15 8 - - N 0,2
20.09.2017 15:00:00 13,7 12,3 22 12 - - NW 0,0
20.09.2017 14:00:00 16,4 13,2 4 2 - - SSW 0,0
20.09.2017 13:00:00 16,1 13,1 13 7 - - SSW 0,0
20.09.2017 12:00:00 14,9 12,8 5 3 - - SSE 0,0

tt = Température de l'air
td = dewpoint
ff = Vitesse du vent
fx = gusts
dd = Direction du vent
rr = Quantités de précipitations

stations d'obs. à proximité